sensor_id;sensor_type;location;lat;lon;timestamp;P1;durP1;ratioP1;P2;durP2;ratioP2
22916;SDS011;11624;53.250;7.456;2024-01-07T00:01:48;14.07;;;5.07;;
22916;SDS011;11624;53.250;7.456;2024-01-07T00:04:16;13.70;;;5.13;;
22916;SDS011;11624;53.250;7.456;2024-01-07T00:06:46;14.90;;;5.63;;
22916;SDS011;11624;53.250;7.456;2024-01-07T00:09:15;12.80;;;5.07;;
22916;SDS011;11624;53.250;7.456;2024-01-07T00:11:43;15.60;;;5.60;;
22916;SDS011;11624;53.250;7.456;2024-01-07T00:14:12;14.47;;;6.00;;
22916;SDS011;11624;53.250;7.456;2024-01-07T00:16:40;13.87;;;5.00;;
22916;SDS011;11624;53.250;7.456;2024-01-07T00:19:09;12.97;;;4.83;;
22916;SDS011;11624;53.250;7.456;2024-01-07T00:21:38;15.10;;;5.23;;
22916;SDS011;11624;53.250;7.456;2024-01-07T00:24:06;14.93;;;5.60;;
22916;SDS011;11624;53.250;7.456;2024-01-07T00:26:34;16.73;;;5.33;;
22916;SDS011;11624;53.250;7.456;2024-01-07T00:29:02;14.17;;;5.30;;
22916;SDS011;11624;53.250;7.456;2024-01-07T00:31:31;11.00;;;4.57;;
22916;SDS011;11624;53.250;7.456;2024-01-07T00:34:00;14.93;;;5.40;;
22916;SDS011;11624;53.250;7.456;2024-01-07T00:36:29;13.80;;;5.27;;
22916;SDS011;11624;53.250;7.456;2024-01-07T00:38:58;13.53;;;5.00;;
22916;SDS011;11624;53.250;7.456;2024-01-07T00:41:26;14.70;;;5.13;;
22916;SDS011;11624;53.250;7.456;2024-01-07T00:43:54;13.63;;;5.13;;
22916;SDS011;11624;53.250;7.456;2024-01-07T00:46:22;12.40;;;4.30;;
22916;SDS011;11624;53.250;7.456;2024-01-07T00:48:51;11.27;;;3.97;;
22916;SDS011;11624;53.250;7.456;2024-01-07T00:51:19;13.97;;;4.90;;
22916;SDS011;11624;53.250;7.456;2024-01-07T00:53:47;14.50;;;4.97;;
22916;SDS011;11624;53.250;7.456;2024-01-07T00:56:16;11.77;;;4.30;;
22916;SDS011;11624;53.250;7.456;2024-01-07T00:58:44;12.93;;;4.40;;
22916;SDS011;11624;53.250;7.456;2024-01-07T01:01:12;12.97;;;4.33;;
22916;SDS011;11624;53.250;7.456;2024-01-07T01:03:40;13.43;;;4.27;;
22916;SDS011;11624;53.250;7.456;2024-01-07T01:06:09;12.97;;;4.40;;
22916;SDS011;11624;53.250;7.456;2024-01-07T01:08:37;12.13;;;4.20;;
22916;SDS011;11624;53.250;7.456;2024-01-07T01:11:10;11.83;;;4.07;;
22916;SDS011;11624;53.250;7.456;2024-01-07T01:13:38;11.37;;;3.63;;
22916;SDS011;11624;53.250;7.456;2024-01-07T01:16:06;12.40;;;4.30;;
22916;SDS011;11624;53.250;7.456;2024-01-07T01:18:35;11.17;;;4.20;;
22916;SDS011;11624;53.250;7.456;2024-01-07T01:21:03;10.87;;;3.90;;
22916;SDS011;11624;53.250;7.456;2024-01-07T01:23:32;11.80;;;3.93;;
22916;SDS011;11624;53.250;7.456;2024-01-07T01:26:00;13.53;;;4.30;;
22916;SDS011;11624;53.250;7.456;2024-01-07T01:28:30;13.80;;;4.43;;
22916;SDS011;11624;53.250;7.456;2024-01-07T01:30:58;13.10;;;4.10;;
22916;SDS011;11624;53.250;7.456;2024-01-07T01:33:26;12.30;;;4.07;;
22916;SDS011;11624;53.250;7.456;2024-01-07T01:35:54;10.83;;;3.70;;
22916;SDS011;11624;53.250;7.456;2024-01-07T01:38:23;11.80;;;3.70;;
22916;SDS011;11624;53.250;7.456;2024-01-07T01:40:51;12.40;;;4.50;;
22916;SDS011;11624;53.250;7.456;2024-01-07T01:43:23;11.30;;;3.63;;
22916;SDS011;11624;53.250;7.456;2024-01-07T01:45:53;9.73;;;3.40;;
22916;SDS011;11624;53.250;7.456;2024-01-07T01:48:22;12.23;;;4.03;;
22916;SDS011;11624;53.250;7.456;2024-01-07T01:50:52;11.20;;;3.60;;
22916;SDS011;11624;53.250;7.456;2024-01-07T01:53:21;9.50;;;3.60;;
22916;SDS011;11624;53.250;7.456;2024-01-07T01:55:50;13.43;;;4.00;;
22916;SDS011;11624;53.250;7.456;2024-01-07T01:58:19;10.67;;;3.80;;
22916;SDS011;11624;53.250;7.456;2024-01-07T02:00:48;10.17;;;3.37;;
22916;SDS011;11624;53.250;7.456;2024-01-07T02:03:18;8.13;;;3.03;;
22916;SDS011;11624;53.250;7.456;2024-01-07T02:05:48;9.20;;;3.00;;
22916;SDS011;11624;53.250;7.456;2024-01-07T02:08:16;9.20;;;3.00;;
22916;SDS011;11624;53.250;7.456;2024-01-07T02:10:46;9.97;;;3.53;;
22916;SDS011;11624;53.250;7.456;2024-01-07T02:13:14;10.53;;;3.10;;
22916;SDS011;11624;53.250;7.456;2024-01-07T02:15:42;9.43;;;2.97;;
22916;SDS011;11624;53.250;7.456;2024-01-07T02:18:11;11.80;;;3.23;;
22916;SDS011;11624;53.250;7.456;2024-01-07T02:20:40;7.43;;;2.80;;
22916;SDS011;11624;53.250;7.456;2024-01-07T02:23:08;9.03;;;3.20;;
22916;SDS011;11624;53.250;7.456;2024-01-07T02:25:38;11.80;;;2.97;;
22916;SDS011;11624;53.250;7.456;2024-01-07T02:28:06;11.57;;;3.30;;
22916;SDS011;11624;53.250;7.456;2024-01-07T02:30:35;8.90;;;2.83;;
22916;SDS011;11624;53.250;7.456;2024-01-07T02:33:04;9.33;;;3.27;;
22916;SDS011;11624;53.250;7.456;2024-01-07T02:35:32;10.60;;;3.37;;
22916;SDS011;11624;53.250;7.456;2024-01-07T02:38:00;11.77;;;3.17;;
22916;SDS011;11624;53.250;7.456;2024-01-07T02:40:29;9.90;;;3.00;;
22916;SDS011;11624;53.250;7.456;2024-01-07T02:42:58;7.87;;;3.10;;
22916;SDS011;11624;53.250;7.456;2024-01-07T02:45:27;7.73;;;2.70;;
22916;SDS011;11624;53.250;7.456;2024-01-07T02:47:55;6.47;;;2.70;;
22916;SDS011;11624;53.250;7.456;2024-01-07T02:50:23;9.93;;;3.10;;
22916;SDS011;11624;53.250;7.456;2024-01-07T02:52:52;10.37;;;3.30;;
22916;SDS011;11624;53.250;7.456;2024-01-07T02:55:21;10.93;;;3.13;;
22916;SDS011;11624;53.250;7.456;2024-01-07T02:57:49;9.27;;;3.20;;
22916;SDS011;11624;53.250;7.456;2024-01-07T03:00:19;8.10;;;2.87;;
22916;SDS011;11624;53.250;7.456;2024-01-07T03:02:47;6.67;;;2.53;;
22916;SDS011;11624;53.250;7.456;2024-01-07T03:05:15;9.57;;;2.80;;
22916;SDS011;11624;53.250;7.456;2024-01-07T03:07:44;8.13;;;2.70;;
22916;SDS011;11624;53.250;7.456;2024-01-07T03:10:12;8.57;;;2.93;;
22916;SDS011;11624;53.250;7.456;2024-01-07T03:12:40;10.27;;;2.80;;
22916;SDS011;11624;53.250;7.456;2024-01-07T03:15:09;6.13;;;2.60;;
22916;SDS011;11624;53.250;7.456;2024-01-07T03:17:38;7.40;;;2.23;;
22916;SDS011;11624;53.250;7.456;2024-01-07T03:20:07;10.73;;;2.70;;
22916;SDS011;11624;53.250;7.456;2024-01-07T03:22:36;5.43;;;2.23;;
22916;SDS011;11624;53.250;7.456;2024-01-07T03:25:04;10.47;;;2.93;;
22916;SDS011;11624;53.250;7.456;2024-01-07T03:27:34;7.57;;;2.30;;
22916;SDS011;11624;53.250;7.456;2024-01-07T03:30:02;7.67;;;2.70;;
22916;SDS011;11624;53.250;7.456;2024-01-07T03:32:31;7.57;;;2.20;;
22916;SDS011;11624;53.250;7.456;2024-01-07T03:35:00;8.73;;;2.40;;
22916;SDS011;11624;53.250;7.456;2024-01-07T03:37:29;7.03;;;2.33;;
22916;SDS011;11624;53.250;7.456;2024-01-07T03:39:57;7.37;;;2.47;;
22916;SDS011;11624;53.250;7.456;2024-01-07T03:42:25;12.80;;;2.90;;
22916;SDS011;11624;53.250;7.456;2024-01-07T03:44:53;7.80;;;2.43;;
22916;SDS011;11624;53.250;7.456;2024-01-07T03:47:20;6.77;;;2.40;;
22916;SDS011;11624;53.250;7.456;2024-01-07T03:49:49;10.73;;;2.30;;
22916;SDS011;11624;53.250;7.456;2024-01-07T03:52:18;6.73;;;2.20;;
22916;SDS011;11624;53.250;7.456;2024-01-07T03:54:46;7.47;;;2.20;;
22916;SDS011;11624;53.250;7.456;2024-01-07T03:57:15;4.90;;;1.90;;
22916;SDS011;11624;53.250;7.456;2024-01-07T03:59:43;5.67;;;2.07;;
22916;SDS011;11624;53.250;7.456;2024-01-07T04:02:11;8.50;;;2.03;;
22916;SDS011;11624;53.250;7.456;2024-01-07T04:04:42;9.37;;;2.23;;
22916;SDS011;11624;53.250;7.456;2024-01-07T04:07:11;9.33;;;2.20;;
22916;SDS011;11624;53.250;7.456;2024-01-07T04:09:42;6.60;;;2.00;;
22916;SDS011;11624;53.250;7.456;2024-01-07T04:12:10;8.23;;;2.03;;
22916;SDS011;11624;53.250;7.456;2024-01-07T04:14:39;5.97;;;2.10;;
22916;SDS011;11624;53.250;7.456;2024-01-07T04:17:07;6.23;;;2.00;;
22916;SDS011;11624;53.250;7.456;2024-01-07T04:19:36;4.27;;;1.80;;
22916;SDS011;11624;53.250;7.456;2024-01-07T04:22:05;6.57;;;1.83;;
22916;SDS011;11624;53.250;7.456;2024-01-07T04:24:33;6.83;;;2.20;;
22916;SDS011;11624;53.250;7.456;2024-01-07T04:27:03;4.83;;;1.73;;
22916;SDS011;11624;53.250;7.456;2024-01-07T04:29:31;5.20;;;1.90;;
22916;SDS011;11624;53.250;7.456;2024-01-07T04:32:00;7.03;;;1.97;;
22916;SDS011;11624;53.250;7.456;2024-01-07T04:34:28;5.07;;;1.90;;
22916;SDS011;11624;53.250;7.456;2024-01-07T04:36:56;7.30;;;1.90;;
22916;SDS011;11624;53.250;7.456;2024-01-07T04:39:24;7.30;;;1.70;;
22916;SDS011;11624;53.250;7.456;2024-01-07T04:41:53;4.70;;;1.60;;
22916;SDS011;11624;53.250;7.456;2024-01-07T04:44:22;5.77;;;2.00;;
22916;SDS011;11624;53.250;7.456;2024-01-07T04:46:51;4.37;;;1.80;;
22916;SDS011;11624;53.250;7.456;2024-01-07T04:49:19;5.83;;;2.00;;
22916;SDS011;11624;53.250;7.456;2024-01-07T04:51:47;3.97;;;1.53;;
22916;SDS011;11624;53.250;7.456;2024-01-07T04:54:15;7.30;;;1.97;;
22916;SDS011;11624;53.250;7.456;2024-01-07T04:56:45;4.30;;;1.73;;
22916;SDS011;11624;53.250;7.456;2024-01-07T04:59:13;4.23;;;1.60;;
22916;SDS011;11624;53.250;7.456;2024-01-07T05:01:42;5.40;;;1.90;;
22916;SDS011;11624;53.250;7.456;2024-01-07T05:04:11;5.57;;;1.87;;
22916;SDS011;11624;53.250;7.456;2024-01-07T05:06:39;6.23;;;1.80;;
22916;SDS011;11624;53.250;7.456;2024-01-07T05:09:08;9.33;;;2.03;;
22916;SDS011;11624;53.250;7.456;2024-01-07T05:11:39;6.17;;;2.13;;
22916;SDS011;11624;53.250;7.456;2024-01-07T05:14:07;6.27;;;1.90;;
22916;SDS011;11624;53.250;7.456;2024-01-07T05:16:35;4.40;;;1.90;;
22916;SDS011;11624;53.250;7.456;2024-01-07T05:19:05;9.40;;;1.77;;
22916;SDS011;11624;53.250;7.456;2024-01-07T05:21:33;4.63;;;1.50;;
22916;SDS011;11624;53.250;7.456;2024-01-07T05:24:01;5.00;;;1.60;;
22916;SDS011;11624;53.250;7.456;2024-01-07T05:26:31;8.03;;;1.67;;
22916;SDS011;11624;53.250;7.456;2024-01-07T05:29:05;7.90;;;1.93;;
22916;SDS011;11624;53.250;7.456;2024-01-07T05:31:33;6.23;;;1.90;;
22916;SDS011;11624;53.250;7.456;2024-01-07T05:34:01;7.10;;;1.70;;
22916;SDS011;11624;53.250;7.456;2024-01-07T05:36:31;5.70;;;1.77;;
22916;SDS011;11624;53.250;7.456;2024-01-07T05:38:59;7.30;;;2.00;;
22916;SDS011;11624;53.250;7.456;2024-01-07T05:41:28;4.70;;;1.70;;
22916;SDS011;11624;53.250;7.456;2024-01-07T05:43:56;4.63;;;1.60;;
22916;SDS011;11624;53.250;7.456;2024-01-07T05:46:24;4.40;;;1.57;;
22916;SDS011;11624;53.250;7.456;2024-01-07T05:48:52;5.20;;;1.60;;
22916;SDS011;11624;53.250;7.456;2024-01-07T05:51:21;7.70;;;2.10;;
22916;SDS011;11624;53.250;7.456;2024-01-07T05:53:50;7.23;;;1.93;;
22916;SDS011;11624;53.250;7.456;2024-01-07T05:56:18;5.03;;;1.43;;
22916;SDS011;11624;53.250;7.456;2024-01-07T05:58:47;4.13;;;1.40;;
22916;SDS011;11624;53.250;7.456;2024-01-07T06:01:18;3.20;;;1.40;;
22916;SDS011;11624;53.250;7.456;2024-01-07T06:03:47;7.67;;;1.43;;
22916;SDS011;11624;53.250;7.456;2024-01-07T06:06:15;6.13;;;1.70;;
22916;SDS011;11624;53.250;7.456;2024-01-07T06:08:44;5.63;;;1.87;;
22916;SDS011;11624;53.250;7.456;2024-01-07T06:11:13;5.63;;;1.67;;
22916;SDS011;11624;53.250;7.456;2024-01-07T06:13:47;3.83;;;1.50;;
22916;SDS011;11624;53.250;7.456;2024-01-07T06:16:15;4.90;;;1.63;;
22916;SDS011;11624;53.250;7.456;2024-01-07T06:18:43;3.33;;;1.33;;
22916;SDS011;11624;53.250;7.456;2024-01-07T06:21:12;4.67;;;1.37;;
22916;SDS011;11624;53.250;7.456;2024-01-07T06:23:40;3.00;;;1.43;;
22916;SDS011;11624;53.250;7.456;2024-01-07T06:26:08;4.73;;;1.60;;
22916;SDS011;11624;53.250;7.456;2024-01-07T06:28:38;7.10;;;1.47;;
22916;SDS011;11624;53.250;7.456;2024-01-07T06:31:06;4.93;;;1.40;;
22916;SDS011;11624;53.250;7.456;2024-01-07T06:33:34;5.37;;;1.50;;
22916;SDS011;11624;53.250;7.456;2024-01-07T06:36:03;4.33;;;1.70;;
22916;SDS011;11624;53.250;7.456;2024-01-07T06:38:31;4.77;;;1.70;;
22916;SDS011;11624;53.250;7.456;2024-01-07T06:41:00;5.77;;;1.80;;
22916;SDS011;11624;53.250;7.456;2024-01-07T06:43:31;3.97;;;1.40;;
22916;SDS011;11624;53.250;7.456;2024-01-07T06:46:01;6.23;;;1.60;;
22916;SDS011;11624;53.250;7.456;2024-01-07T06:48:29;4.27;;;1.57;;
22916;SDS011;11624;53.250;7.456;2024-01-07T06:50:58;2.97;;;1.23;;
22916;SDS011;11624;53.250;7.456;2024-01-07T06:53:26;6.00;;;1.70;;
22916;SDS011;11624;53.250;7.456;2024-01-07T06:55:54;4.13;;;1.60;;
22916;SDS011;11624;53.250;7.456;2024-01-07T06:58:22;5.87;;;1.70;;
22916;SDS011;11624;53.250;7.456;2024-01-07T07:00:50;8.53;;;1.60;;
22916;SDS011;11624;53.250;7.456;2024-01-07T07:03:20;6.00;;;1.80;;
22916;SDS011;11624;53.250;7.456;2024-01-07T07:05:48;5.93;;;1.73;;
22916;SDS011;11624;53.250;7.456;2024-01-07T07:08:17;4.03;;;1.50;;
22916;SDS011;11624;53.250;7.456;2024-01-07T07:10:45;5.20;;;1.80;;
22916;SDS011;11624;53.250;7.456;2024-01-07T07:13:13;7.00;;;1.70;;
22916;SDS011;11624;53.250;7.456;2024-01-07T07:15:41;6.33;;;1.90;;
22916;SDS011;11624;53.250;7.456;2024-01-07T07:18:10;6.13;;;2.10;;
22916;SDS011;11624;53.250;7.456;2024-01-07T07:20:39;5.90;;;2.17;;
22916;SDS011;11624;53.250;7.456;2024-01-07T07:23:08;7.60;;;1.80;;
22916;SDS011;11624;53.250;7.456;2024-01-07T07:25:36;3.60;;;1.80;;
22916;SDS011;11624;53.250;7.456;2024-01-07T07:28:04;4.07;;;1.63;;
22916;SDS011;11624;53.250;7.456;2024-01-07T07:30:32;6.30;;;2.10;;
22916;SDS011;11624;53.250;7.456;2024-01-07T07:33:01;4.83;;;1.50;;
22916;SDS011;11624;53.250;7.456;2024-01-07T07:35:30;4.53;;;1.57;;
22916;SDS011;11624;53.250;7.456;2024-01-07T07:37:59;5.00;;;1.60;;
22916;SDS011;11624;53.250;7.456;2024-01-07T07:40:27;6.00;;;1.90;;
22916;SDS011;11624;53.250;7.456;2024-01-07T07:42:56;4.57;;;1.73;;
22916;SDS011;11624;53.250;7.456;2024-01-07T07:45:24;4.33;;;1.70;;
22916;SDS011;11624;53.250;7.456;2024-01-07T07:47:52;5.83;;;2.00;;
22916;SDS011;11624;53.250;7.456;2024-01-07T07:50:21;7.77;;;2.07;;
22916;SDS011;11624;53.250;7.456;2024-01-07T07:52:49;5.50;;;2.00;;
22916;SDS011;11624;53.250;7.456;2024-01-07T07:55:19;6.47;;;2.27;;
22916;SDS011;11624;53.250;7.456;2024-01-07T07:57:47;5.17;;;1.77;;
22916;SDS011;11624;53.250;7.456;2024-01-07T08:00:15;5.23;;;1.80;;
22916;SDS011;11624;53.250;7.456;2024-01-07T08:02:44;5.80;;;2.10;;
22916;SDS011;11624;53.250;7.456;2024-01-07T08:05:12;6.57;;;2.20;;
22916;SDS011;11624;53.250;7.456;2024-01-07T08:07:40;8.30;;;1.70;;
22916;SDS011;11624;53.250;7.456;2024-01-07T08:10:09;6.57;;;2.27;;
22916;SDS011;11624;53.250;7.456;2024-01-07T08:12:38;8.73;;;2.07;;
22916;SDS011;11624;53.250;7.456;2024-01-07T08:15:07;9.20;;;1.97;;
22916;SDS011;11624;53.250;7.456;2024-01-07T08:17:36;5.90;;;2.03;;
22916;SDS011;11624;53.250;7.456;2024-01-07T08:20:04;4.73;;;1.40;;
22916;SDS011;11624;53.250;7.456;2024-01-07T08:22:33;5.67;;;1.83;;
22916;SDS011;11624;53.250;7.456;2024-01-07T08:25:02;3.90;;;1.77;;
22916;SDS011;11624;53.250;7.456;2024-01-07T08:27:30;5.63;;;1.90;;
22916;SDS011;11624;53.250;7.456;2024-01-07T08:30:04;3.53;;;1.70;;
22916;SDS011;11624;53.250;7.456;2024-01-07T08:32:33;6.13;;;2.03;;
22916;SDS011;11624;53.250;7.456;2024-01-07T08:35:02;5.53;;;2.03;;
22916;SDS011;11624;53.250;7.456;2024-01-07T08:37:30;7.80;;;2.13;;
22916;SDS011;11624;53.250;7.456;2024-01-07T08:39:59;7.03;;;2.00;;
22916;SDS011;11624;53.250;7.456;2024-01-07T08:42:27;6.13;;;1.90;;
22916;SDS011;11624;53.250;7.456;2024-01-07T08:44:57;9.80;;;2.37;;
22916;SDS011;11624;53.250;7.456;2024-01-07T08:47:29;5.73;;;2.10;;
22916;SDS011;11624;53.250;7.456;2024-01-07T08:50:02;6.90;;;2.10;;
22916;SDS011;11624;53.250;7.456;2024-01-07T08:52:32;7.37;;;2.20;;
22916;SDS011;11624;53.250;7.456;2024-01-07T08:55:01;7.23;;;2.13;;
22916;SDS011;11624;53.250;7.456;2024-01-07T08:57:32;6.77;;;1.83;;
22916;SDS011;11624;53.250;7.456;2024-01-07T09:00:00;7.80;;;1.97;;
22916;SDS011;11624;53.250;7.456;2024-01-07T09:02:30;4.80;;;1.77;;
22916;SDS011;11624;53.250;7.456;2024-01-07T09:04:58;8.00;;;2.33;;
22916;SDS011;11624;53.250;7.456;2024-01-07T09:07:27;6.37;;;2.17;;
22916;SDS011;11624;53.250;7.456;2024-01-07T09:09:55;5.63;;;1.73;;
22916;SDS011;11624;53.250;7.456;2024-01-07T09:12:26;7.07;;;2.10;;
22916;SDS011;11624;53.250;7.456;2024-01-07T09:14:54;5.33;;;1.70;;
22916;SDS011;11624;53.250;7.456;2024-01-07T09:17:23;10.60;;;2.10;;
22916;SDS011;11624;53.250;7.456;2024-01-07T09:19:52;6.80;;;2.00;;
22916;SDS011;11624;53.250;7.456;2024-01-07T09:22:21;8.83;;;2.50;;
22916;SDS011;11624;53.250;7.456;2024-01-07T09:24:50;6.53;;;2.37;;
22916;SDS011;11624;53.250;7.456;2024-01-07T09:27:19;5.67;;;1.90;;
22916;SDS011;11624;53.250;7.456;2024-01-07T09:29:47;5.67;;;2.00;;
22916;SDS011;11624;53.250;7.456;2024-01-07T09:32:16;6.97;;;2.13;;
22916;SDS011;11624;53.250;7.456;2024-01-07T09:34:44;4.37;;;1.83;;
22916;SDS011;11624;53.250;7.456;2024-01-07T09:37:14;7.57;;;2.07;;
22916;SDS011;11624;53.250;7.456;2024-01-07T09:39:42;7.47;;;2.07;;
22916;SDS011;11624;53.250;7.456;2024-01-07T09:42:12;6.20;;;1.87;;
22916;SDS011;11624;53.250;7.456;2024-01-07T09:44:41;3.90;;;1.83;;
22916;SDS011;11624;53.250;7.456;2024-01-07T09:47:10;5.20;;;1.57;;
22916;SDS011;11624;53.250;7.456;2024-01-07T09:49:39;5.77;;;1.97;;
22916;SDS011;11624;53.250;7.456;2024-01-07T09:52:09;5.43;;;2.00;;
22916;SDS011;11624;53.250;7.456;2024-01-07T09:54:40;6.20;;;2.30;;
22916;SDS011;11624;53.250;7.456;2024-01-07T09:57:08;6.67;;;2.13;;
22916;SDS011;11624;53.250;7.456;2024-01-07T09:59:37;8.37;;;2.60;;
22916;SDS011;11624;53.250;7.456;2024-01-07T10:02:05;11.57;;;2.57;;
22916;SDS011;11624;53.250;7.456;2024-01-07T10:04:36;9.00;;;2.33;;
22916;SDS011;11624;53.250;7.456;2024-01-07T10:07:04;8.80;;;3.07;;
22916;SDS011;11624;53.250;7.456;2024-01-07T10:09:33;7.70;;;2.50;;
22916;SDS011;11624;53.250;7.456;2024-01-07T10:12:04;11.30;;;3.30;;
22916;SDS011;11624;53.250;7.456;2024-01-07T10:14:32;10.77;;;3.07;;
22916;SDS011;11624;53.250;7.456;2024-01-07T10:17:00;8.93;;;3.17;;
22916;SDS011;11624;53.250;7.456;2024-01-07T10:19:29;15.13;;;4.10;;
22916;SDS011;11624;53.250;7.456;2024-01-07T10:22:00;10.57;;;3.47;;
22916;SDS011;11624;53.250;7.456;2024-01-07T10:24:35;10.27;;;3.50;;
22916;SDS011;11624;53.250;7.456;2024-01-07T10:27:07;11.10;;;2.83;;
22916;SDS011;11624;53.250;7.456;2024-01-07T10:29:36;9.77;;;3.20;;
22916;SDS011;11624;53.250;7.456;2024-01-07T10:32:05;7.85;;;2.90;;
22916;SDS011;11624;53.250;7.456;2024-01-07T10:34:34;9.95;;;3.42;;
22916;SDS011;11624;53.250;7.456;2024-01-07T10:37:04;7.38;;;2.60;;
22916;SDS011;11624;53.250;7.456;2024-01-07T10:39:32;10.05;;;3.25;;
22916;SDS011;11624;53.250;7.456;2024-01-07T10:42:01;10.32;;;3.25;;
22916;SDS011;11624;53.250;7.456;2024-01-07T10:44:31;10.25;;;3.42;;
22916;SDS011;11624;53.250;7.456;2024-01-07T10:47:00;12.32;;;3.17;;
22916;SDS011;11624;53.250;7.456;2024-01-07T10:49:34;12.32;;;3.08;;
22916;SDS011;11624;53.250;7.456;2024-01-07T10:52:04;9.02;;;3.38;;
22916;SDS011;11624;53.250;7.456;2024-01-07T10:54:35;10.75;;;3.13;;
22916;SDS011;11624;53.250;7.456;2024-01-07T10:57:06;10.75;;;3.08;;
22916;SDS011;11624;53.250;7.456;2024-01-07T10:59:42;9.75;;;3.17;;
22916;SDS011;11624;53.250;7.456;2024-01-07T11:02:12;9.68;;;3.00;;
22916;SDS011;11624;53.250;7.456;2024-01-07T11:04:42;8.13;;;3.05;;
22916;SDS011;11624;53.250;7.456;2024-01-07T11:07:18;12.13;;;3.20;;
22916;SDS011;11624;53.250;7.456;2024-01-07T11:09:54;9.95;;;3.10;;
22916;SDS011;11624;53.250;7.456;2024-01-07T11:12:31;8.50;;;2.65;;
22916;SDS011;11624;53.250;7.456;2024-01-07T11:15:01;9.90;;;3.33;;
22916;SDS011;11624;53.250;7.456;2024-01-07T11:17:39;10.90;;;3.20;;
22916;SDS011;11624;53.250;7.456;2024-01-07T11:20:12;8.18;;;2.60;;
22916;SDS011;11624;53.250;7.456;2024-01-07T11:22:41;11.75;;;3.50;;
22916;SDS011;11624;53.250;7.456;2024-01-07T11:28:05;9.00;;;3.20;;
22916;SDS011;11624;53.250;7.456;2024-01-07T11:30:39;13.20;;;3.93;;
22916;SDS011;11624;53.250;7.456;2024-01-07T11:33:09;10.33;;;3.50;;
22916;SDS011;11624;53.250;7.456;2024-01-07T11:35:55;8.90;;;3.30;;
22916;SDS011;11624;53.250;7.456;2024-01-07T11:38:24;11.10;;;3.43;;
22916;SDS011;11624;53.250;7.456;2024-01-07T11:40:53;14.30;;;3.80;;
22916;SDS011;11624;53.250;7.456;2024-01-07T11:43:23;12.80;;;3.70;;
22916;SDS011;11624;53.250;7.456;2024-01-07T11:45:53;11.77;;;3.47;;
22916;SDS011;11624;53.250;7.456;2024-01-07T11:48:21;10.23;;;3.40;;
22916;SDS011;11624;53.250;7.456;2024-01-07T11:50:49;10.57;;;3.07;;
22916;SDS011;11624;53.250;7.456;2024-01-07T11:53:21;11.33;;;3.70;;
22916;SDS011;11624;53.250;7.456;2024-01-07T11:55:50;10.32;;;2.75;;
22916;SDS011;11624;53.250;7.456;2024-01-07T11:58:19;8.77;;;3.17;;
22916;SDS011;11624;53.250;7.456;2024-01-07T12:00:47;10.45;;;3.22;;
22916;SDS011;11624;53.250;7.456;2024-01-07T12:03:18;8.88;;;2.95;;
22916;SDS011;11624;53.250;7.456;2024-01-07T12:05:46;6.40;;;2.50;;
22916;SDS011;11624;53.250;7.456;2024-01-07T12:08:15;9.13;;;3.05;;
22916;SDS011;11624;53.250;7.456;2024-01-07T12:10:43;10.80;;;3.05;;
22916;SDS011;11624;53.250;7.456;2024-01-07T12:13:13;8.57;;;2.67;;
22916;SDS011;11624;53.250;7.456;2024-01-07T12:15:41;6.75;;;2.40;;
22916;SDS011;11624;53.250;7.456;2024-01-07T12:18:10;8.98;;;2.75;;
22916;SDS011;11624;53.250;7.456;2024-01-07T12:20:40;9.07;;;2.80;;
22916;SDS011;11624;53.250;7.456;2024-01-07T12:23:09;9.85;;;2.75;;
22916;SDS011;11624;53.250;7.456;2024-01-07T12:25:37;8.23;;;3.08;;
22916;SDS011;11624;53.250;7.456;2024-01-07T12:28:06;9.25;;;2.95;;
22916;SDS011;11624;53.250;7.456;2024-01-07T12:30:36;8.98;;;3.25;;
22916;SDS011;11624;53.250;7.456;2024-01-07T12:33:05;9.50;;;2.95;;
22916;SDS011;11624;53.250;7.456;2024-01-07T12:35:34;10.60;;;2.60;;
22916;SDS011;11624;53.250;7.456;2024-01-07T12:38:04;11.80;;;3.78;;
22916;SDS011;11624;53.250;7.456;2024-01-07T12:40:33;10.10;;;3.15;;
22916;SDS011;11624;53.250;7.456;2024-01-07T12:43:01;10.85;;;3.33;;
22916;SDS011;11624;53.250;7.456;2024-01-07T12:45:31;7.63;;;3.05;;
22916;SDS011;11624;53.250;7.456;2024-01-07T12:47:59;9.80;;;3.13;;
22916;SDS011;11624;53.250;7.456;2024-01-07T12:50:29;10.07;;;3.00;;
22916;SDS011;11624;53.250;7.456;2024-01-07T12:52:58;9.15;;;2.63;;
22916;SDS011;11624;53.250;7.456;2024-01-07T12:55:28;10.10;;;2.80;;
22916;SDS011;11624;53.250;7.456;2024-01-07T12:57:56;10.15;;;2.60;;
22916;SDS011;11624;53.250;7.456;2024-01-07T13:00:25;6.97;;;2.20;;
22916;SDS011;11624;53.250;7.456;2024-01-07T13:02:55;7.53;;;2.50;;
22916;SDS011;11624;53.250;7.456;2024-01-07T13:05:27;6.82;;;2.47;;
22916;SDS011;11624;53.250;7.456;2024-01-07T13:07:55;8.60;;;2.67;;
22916;SDS011;11624;53.250;7.456;2024-01-07T13:10:24;9.45;;;2.55;;
22916;SDS011;11624;53.250;7.456;2024-01-07T13:12:55;10.05;;;3.05;;
22916;SDS011;11624;53.250;7.456;2024-01-07T13:15:33;10.02;;;3.00;;
22916;SDS011;11624;53.250;7.456;2024-01-07T13:18:02;8.55;;;2.65;;
22916;SDS011;11624;53.250;7.456;2024-01-07T13:20:31;8.80;;;2.72;;
22916;SDS011;11624;53.250;7.456;2024-01-07T13:23:00;7.10;;;2.67;;
22916;SDS011;11624;53.250;7.456;2024-01-07T13:25:31;9.00;;;2.75;;
22916;SDS011;11624;53.250;7.456;2024-01-07T13:28:00;9.23;;;2.75;;
22916;SDS011;11624;53.250;7.456;2024-01-07T13:30:29;7.97;;;2.33;;
22916;SDS011;11624;53.250;7.456;2024-01-07T13:32:57;10.57;;;2.50;;
22916;SDS011;11624;53.250;7.456;2024-01-07T13:35:29;7.10;;;2.50;;
22916;SDS011;11624;53.250;7.456;2024-01-07T13:37:57;10.48;;;2.58;;
22916;SDS011;11624;53.250;7.456;2024-01-07T13:40:26;7.50;;;2.42;;
22916;SDS011;11624;53.250;7.456;2024-01-07T13:42:54;9.30;;;2.97;;
22916;SDS011;11624;53.250;7.456;2024-01-07T13:45:24;9.38;;;3.17;;
22916;SDS011;11624;53.250;7.456;2024-01-07T13:47:52;9.38;;;3.13;;
22916;SDS011;11624;53.250;7.456;2024-01-07T13:50:20;8.98;;;2.30;;
22916;SDS011;11624;53.250;7.456;2024-01-07T13:52:49;9.07;;;2.38;;
22916;SDS011;11624;53.250;7.456;2024-01-07T13:55:17;8.88;;;2.70;;
22916;SDS011;11624;53.250;7.456;2024-01-07T13:57:46;10.05;;;3.15;;
22916;SDS011;11624;53.250;7.456;2024-01-07T14:00:14;7.63;;;2.53;;
22916;SDS011;11624;53.250;7.456;2024-01-07T14:02:47;7.97;;;2.75;;
22916;SDS011;11624;53.250;7.456;2024-01-07T14:05:16;7.72;;;2.58;;
22916;SDS011;11624;53.250;7.456;2024-01-07T14:07:46;8.20;;;2.75;;
22916;SDS011;11624;53.250;7.456;2024-01-07T14:10:14;12.13;;;4.30;;
22916;SDS011;11624;53.250;7.456;2024-01-07T14:12:45;13.02;;;4.18;;
22916;SDS011;11624;53.250;7.456;2024-01-07T14:15:14;9.98;;;2.95;;
22916;SDS011;11624;53.250;7.456;2024-01-07T14:17:44;11.55;;;4.00;;
22916;SDS011;11624;53.250;7.456;2024-01-07T14:20:15;18.70;;;6.22;;
22916;SDS011;11624;53.250;7.456;2024-01-07T14:22:43;21.50;;;7.10;;
22916;SDS011;11624;53.250;7.456;2024-01-07T14:25:11;15.10;;;5.07;;
22916;SDS011;11624;53.250;7.456;2024-01-07T14:27:41;15.23;;;4.60;;
22916;SDS011;11624;53.250;7.456;2024-01-07T14:30:10;18.95;;;7.63;;
22916;SDS011;11624;53.250;7.456;2024-01-07T14:32:40;11.20;;;3.33;;
22916;SDS011;11624;53.250;7.456;2024-01-07T14:35:10;12.55;;;4.13;;
22916;SDS011;11624;53.250;7.456;2024-01-07T14:37:39;14.25;;;5.00;;
22916;SDS011;11624;53.250;7.456;2024-01-07T14:40:08;10.00;;;2.90;;
22916;SDS011;11624;53.250;7.456;2024-01-07T14:42:36;10.38;;;2.72;;
22916;SDS011;11624;53.250;7.456;2024-01-07T14:45:05;8.23;;;2.67;;
22916;SDS011;11624;53.250;7.456;2024-01-07T14:47:37;11.75;;;3.30;;
22916;SDS011;11624;53.250;7.456;2024-01-07T14:50:05;8.13;;;2.70;;
22916;SDS011;11624;53.250;7.456;2024-01-07T14:52:36;9.90;;;3.20;;
22916;SDS011;11624;53.250;7.456;2024-01-07T14:55:05;10.93;;;3.40;;
22916;SDS011;11624;53.250;7.456;2024-01-07T14:57:33;15.73;;;3.23;;